Time;durP1;ratioP1;P1;durP2;ratioP2;P2;SDS_P1;SDS_P2;PMS_P1;PMS_P2;Temp;Humidity;BMP_temperature;BMP_pressure;BME280_temperature;BME280_humidity;BME280_pressure;Samples;Min_cycle;Max_cycle;Signal;HPM_P1;HPM_P2
2022/07/11 00:02:20;;;;;;;13.02;3.65;;;;;;;16.64;61.86;93273.00;2070345;69;20156;-73
2022/07/11 00:04:46;;;;;;;16.25;4.25;;;;;;;16.52;62.74;93272.41;2067358;69;20180;-72
2022/07/11 00:07:13;;;;;;;7.63;3.45;;;;;;;16.59;61.53;93270.63;2070828;69;20198;-72
2022/07/11 00:09:38;;;;;;;7.60;3.60;;;;;;;16.44;62.98;93264.22;2071479;69;20148;-73
2022/07/11 00:12:05;;;;;;;7.32;3.55;;;;;;;16.52;62.09;93270.31;2070932;69;20171;-72
2022/07/11 00:14:31;;;;;;;13.77;4.18;;;;;;;16.52;61.82;93269.56;2067910;69;20133;-73
2022/07/11 00:16:56;;;;;;;12.65;3.88;;;;;;;16.49;61.78;93268.75;2070691;69;20532;-72
2022/07/11 00:19:23;;;;;;;8.80;3.88;;;;;;;16.32;62.60;93269.34;2070625;69;20251;-73
2022/07/11 00:21:50;;;;;;;10.98;3.83;;;;;;;16.25;62.79;93273.25;2070815;69;20159;-73
2022/07/11 00:24:19;;;;;;;10.43;3.83;;;;;;;16.16;63.18;93269.28;2070999;69;20159;-73
2022/07/11 00:26:49;;;;;;;12.60;3.45;;;;;;;16.17;63.06;93275.69;2068412;69;20180;-74
2022/07/11 00:29:15;;;;;;;18.80;4.03;;;;;;;16.14;62.64;93269.19;2065732;69;20179;-73
2022/07/11 00:31:41;;;;;;;24.30;4.72;;;;;;;16.14;62.94;93271.28;2071809;69;20235;-74
2022/07/11 00:34:07;;;;;;;10.40;3.95;;;;;;;16.06;63.05;93271.63;2065341;69;20171;-72
2022/07/11 00:36:34;;;;;;;11.45;3.80;;;;;;;16.07;62.68;93272.34;2069690;69;20144;-73
2022/07/11 00:39:01;;;;;;;14.00;4.22;;;;;;;16.01;63.25;93267.09;2071936;69;20597;-73
2022/07/11 00:41:26;;;;;;;13.57;3.95;;;;;;;16.12;62.15;93266.22;2071838;69;20223;-73
2022/07/11 00:43:55;;;;;;;9.55;4.13;;;;;;;16.08;62.65;93268.13;2068747;69;20152;-73
2022/07/11 00:46:21;;;;;;;10.70;4.20;;;;;;;15.99;62.89;93264.91;2068463;69;20217;-73
2022/07/11 00:48:47;;;;;;;10.10;3.67;;;;;;;15.90;63.21;93262.31;2072555;69;20151;-73
2022/07/11 00:51:13;;;;;;;16.70;4.55;;;;;;;15.73;63.86;93257.91;2071747;69;20163;-73
2022/07/11 00:53:40;;;;;;;13.50;4.22;;;;;;;15.84;62.93;93257.03;2071932;69;20166;-73
2022/07/11 00:56:07;;;;;;;31.17;5.10;;;;;;;15.84;63.14;93250.63;2071914;69;20600;-72
2022/07/11 00:58:34;;;;;;;18.13;4.13;;;;;;;15.73;63.20;93246.56;2068474;69;20261;-72
2022/07/11 01:01:01;;;;;;;8.80;3.90;;;;;;;15.61;63.65;93249.47;2072150;69;20254;-72
2022/07/11 01:03:27;;;;;;;11.73;3.90;;;;;;;15.60;63.65;93252.94;2072029;69;20264;-73
2022/07/11 01:05:53;;;;;;;19.45;5.05;;;;;;;15.59;63.79;93246.53;2071299;69;20172;-72
2022/07/11 01:08:19;;;;;;;22.77;4.97;;;;;;;15.61;63.18;93240.97;2071861;69;20156;-72
2022/07/11 01:10:45;;;;;;;8.68;3.60;;;;;;;15.56;63.74;93247.06;2072218;69;20196;-73
2022/07/11 01:13:10;;;;;;;10.10;3.85;;;;;;;15.52;63.17;93241.91;2072351;69;20596;-73
2022/07/11 01:15:37;;;;;;;17.85;4.63;;;;;;;15.59;63.32;93251.47;2065877;69;20249;-73
2022/07/11 01:18:03;;;;;;;11.48;3.85;;;;;;;15.43;64.18;93246.44;2072558;69;20616;-72
2022/07/11 01:20:29;;;;;;;15.88;4.72;;;;;;;15.45;63.17;93248.66;2071823;69;20177;-73
2022/07/11 01:23:02;;;;;;;13.35;4.50;;;;;;;15.43;63.92;93257.78;2071816;69;20203;-74
2022/07/11 01:25:32;;;;;;;13.07;4.80;;;;;;;15.39;64.12;93257.56;2071582;69;20145;-74
2022/07/11 01:28:06;;;;;;;10.55;3.88;;;;;;;15.53;62.51;93254.72;2068594;69;20151;-73
2022/07/11 01:30:33;;;;;;;13.73;4.50;;;;;;;15.36;63.60;93255.28;2068198;69;20199;-72
2022/07/11 01:32:59;;;;;;;8.65;4.25;;;;;;;15.23;64.27;93251.06;2072057;69;20205;-71
2022/07/11 01:35:26;;;;;;;10.18;3.95;;;;;;;15.17;64.84;93247.91;2071529;69;20235;-72
2022/07/11 01:37:52;;;;;;;11.35;4.65;;;;;;;15.18;64.38;93244.44;2070362;69;20144;-72
2022/07/11 01:40:17;;;;;;;12.05;4.93;;;;;;;15.18;64.23;93241.59;2071023;69;20251;-72
2022/07/11 01:42:44;;;;;;;9.05;4.47;;;;;;;15.22;64.00;93249.59;2070910;69;20518;-72
2022/07/11 01:45:11;;;;;;;8.38;3.90;;;;;;;15.10;64.65;93249.69;2071813;69;20147;-72
2022/07/11 01:47:37;;;;;;;6.32;3.97;;;;;;;15.12;64.53;93244.13;2071443;69;20144;-72
2022/07/11 01:50:04;;;;;;;18.08;5.07;;;;;;;15.07;64.67;93250.19;2067798;69;20234;-73
2022/07/11 01:52:30;;;;;;;12.40;3.97;;;;;;;15.02;64.55;93251.34;2071165;69;20531;-73
2022/07/11 01:54:56;;;;;;;8.35;4.00;;;;;;;15.08;64.48;93266.59;2071045;69;20629;-73
2022/07/11 01:57:21;;;;;;;17.92;4.95;;;;;;;15.09;64.51;93258.81;2071288;69;20247;-73
2022/07/11 01:59:47;;;;;;;17.42;4.65;;;;;;;15.08;63.94;93258.09;2071265;69;20187;-73
2022/07/11 02:02:13;;;;;;;6.03;3.58;;;;;;;14.92;64.79;93257.94;2071081;69;20183;-73
2022/07/11 02:04:40;;;;;;;6.72;4.00;;;;;;;14.93;64.29;93258.69;2067169;69;20148;-73
2022/07/11 02:07:06;;;;;;;9.38;4.35;;;;;;;14.93;64.70;93258.69;2067921;69;20175;-73
2022/07/11 02:09:31;;;;;;;10.38;4.32;;;;;;;14.89;64.66;93255.63;2067705;69;20145;-74
2022/07/11 02:11:57;;;;;;;10.52;4.57;;;;;;;14.87;64.97;93250.59;2068198;69;20151;-73
2022/07/11 02:14:23;;;;;;;9.80;4.45;;;;;;;14.79;64.91;93255.81;2071715;69;20172;-74
2022/07/11 02:16:49;;;;;;;8.30;4.55;;;;;;;14.67;65.34;93255.19;2071445;69;20144;-74
2022/07/11 02:19:15;;;;;;;6.88;4.28;;;;;;;14.66;65.76;93257.28;2071508;69;20144;-74
2022/07/11 02:21:41;;;;;;;6.55;4.45;;;;;;;14.56;66.02;93261.63;2071171;69;20264;-74
2022/07/11 02:24:08;;;;;;;8.35;4.10;;;;;;;14.59;66.02;93260.41;2071760;69;20144;-72
2022/07/11 02:26:34;;;;;;;18.75;5.13;;;;;;;14.63;65.53;93257.78;2071059;69;20146;-73
2022/07/11 02:29:00;;;;;;;5.70;3.97;;;;;;;14.53;66.03;93257.25;2071895;69;20184;-72
2022/07/11 02:31:26;;;;;;;9.40;4.57;;;;;;;14.57;65.71;93263.88;2070911;69;20621;-73
2022/07/11 02:33:51;;;;;;;10.98;4.50;;;;;;;14.50;66.56;93259.22;2068051;69;20583;-74
2022/07/11 02:36:17;;;;;;;9.50;4.80;;;;;;;14.48;65.85;93257.00;2071416;69;20210;-74
2022/07/11 02:38:42;;;;;;;4.90;3.70;;;;;;;14.40;66.54;93264.28;2071894;69;20240;-74
2022/07/11 02:41:08;;;;;;;9.43;4.18;;;;;;;14.37;66.57;93263.44;2071519;69;20160;-74
2022/07/11 02:43:34;;;;;;;7.75;4.15;;;;;;;14.42;65.97;93267.97;2071285;69;20170;-74
2022/07/11 02:46:00;;;;;;;8.60;4.60;;;;;;;14.18;67.23;93264.50;2071561;69;20152;-74
2022/07/11 02:48:26;;;;;;;8.15;4.30;;;;;;;14.30;66.71;93272.97;2071810;69;20156;-75
2022/07/11 02:50:51;;;;;;;5.43;4.07;;;;;;;14.24;66.76;93279.00;2071473;69;20207;-74
2022/07/11 02:53:17;;;;;;;9.63;4.18;;;;;;;14.30;66.34;93272.22;2071717;69;20152;-74
2022/07/11 02:55:43;;;;;;;11.52;4.95;;;;;;;14.29;66.33;93276.41;2071578;69;20260;-74
2022/07/11 02:58:08;;;;;;;8.82;3.97;;;;;;;14.21;66.90;93277.44;2071548;69;20535;-74
2022/07/11 03:00:34;;;;;;;10.15;4.40;;;;;;;14.18;66.92;93280.75;2071245;69;20149;-74
2022/07/11 03:03:01;;;;;;;8.82;4.53;;;;;;;14.20;66.15;93275.97;2071493;69;20137;-73
2022/07/11 03:05:27;;;;;;;11.20;4.40;;;;;;;14.11;67.03;93282.53;2071423;69;20523;-73
2022/07/11 03:07:54;;;;;;;6.18;4.15;;;;;;;14.07;66.93;93278.72;2068426;69;20717;-74
2022/07/11 03:10:20;;;;;;;9.30;4.00;;;;;;;14.18;66.26;93275.09;2071334;69;20167;-74
2022/07/11 03:12:45;;;;;;;7.30;4.18;;;;;;;14.13;66.46;93279.78;2071539;69;20180;-74
2022/07/11 03:15:11;;;;;;;6.35;3.92;;;;;;;14.13;66.11;93274.13;2071997;69;20152;-74
2022/07/11 03:17:38;;;;;;;9.65;5.05;;;;;;;14.09;66.71;93273.91;2067601;69;20196;-75
2022/07/11 03:20:05;;;;;;;8.48;4.72;;;;;;;14.04;66.97;93268.63;2071788;69;20151;-74
2022/07/11 03:22:32;;;;;;;6.22;4.18;;;;;;;14.07;66.61;93282.28;2067943;69;20200;-74
2022/07/11 03:25:00;;;;;;;4.30;3.90;;;;;;;14.03;66.74;93273.56;2071546;69;20256;-74
2022/07/11 03:27:26;;;;;;;9.63;4.30;;;;;;;13.91;67.33;93275.69;2071569;69;20628;-74
2022/07/11 03:29:52;;;;;;;5.28;4.28;;;;;;;13.91;67.69;93278.53;2068280;69;20185;-74
2022/07/11 03:32:20;;;;;;;6.63;4.65;;;;;;;13.90;67.09;93268.56;2070632;69;20198;-74
2022/07/11 03:37:31;;;;;;;290.88;133.00;;;;;;;13.88;67.74;93277.69;2071318;69;20155;-72
2022/07/11 03:39:56;;;;;;;24.92;12.70;;;;;;;13.84;67.60;93277.44;2068542;69;20144;-73
2022/07/11 03:42:22;;;;;;;135.10;59.63;;;;;;;13.65;68.45;93280.53;2071700;69;20147;-73
2022/07/11 03:44:48;;;;;;;76.90;34.03;;;;;;;13.89;66.96;93276.31;2071932;69;20161;-73
2022/07/11 03:47:13;;;;;;;391.40;180.73;;;;;;;13.89;67.32;93270.66;2070265;69;20188;-72
2022/07/11 03:49:39;;;;;;;148.98;59.22;;;;;;;13.92;67.11;93277.16;2068931;69;20156;-72
2022/07/11 03:52:05;;;;;;;64.88;32.33;;;;;;;13.87;67.03;93279.00;2071852;69;20172;-74
2022/07/11 03:54:30;;;;;;;162.98;81.80;;;;;;;13.94;66.95;93269.53;2071701;69;20544;-73
2022/07/11 03:56:56;;;;;;;13.73;6.65;;;;;;;13.86;67.95;93268.31;2071587;69;20144;-74
2022/07/11 03:59:22;;;;;;;7.10;5.18;;;;;;;13.82;67.84;93273.75;2071660;69;20136;-73
2022/07/11 04:01:47;;;;;;;10.40;4.65;;;;;;;13.84;67.50;93265.38;2068509;69;20528;-74
2022/07/11 04:04:13;;;;;;;10.43;5.22;;;;;;;13.55;68.96;93268.63;2071567;69;20144;-73
2022/07/11 04:06:39;;;;;;;12.52;6.43;;;;;;;13.77;67.71;93272.03;2071711;69;20148;-74
2022/07/11 04:09:04;;;;;;;9.35;4.97;;;;;;;13.79;67.68;93275.75;2071811;69;20176;-74
2022/07/11 04:11:31;;;;;;;5.65;4.47;;;;;;;13.78;67.44;93274.25;2072295;69;20213;-74
2022/07/11 04:13:57;;;;;;;7.18;4.53;;;;;;;13.75;67.76;93271.94;2068567;69;20136;-74
2022/07/11 04:16:24;;;;;;;7.22;4.43;;;;;;;13.83;67.09;93275.22;2071871;69;20588;-74
2022/07/11 04:18:50;;;;;;;6.53;4.43;;;;;;;13.78;67.58;93282.00;2065539;69;20180;-74
2022/07/11 04:21:18;;;;;;;8.93;4.65;;;;;;;13.66;68.53;93273.56;2068209;69;20261;-74
2022/07/11 04:23:43;;;;;;;8.70;4.70;;;;;;;13.62;68.37;93273.31;2071942;69;20153;-74
2022/07/11 04:26:09;;;;;;;8.38;4.82;;;;;;;13.62;68.37;93270.47;2071867;69;20167;-74
2022/07/11 04:28:35;;;;;;;1300.68;682.92;;;;;;;13.83;66.85;93275.22;2071627;69;20244;-74
2022/07/11 04:31:00;;;;;;;655.17;287.98;;;;;;;13.91;67.47;93281.34;2071639;69;20149;-73
2022/07/11 04:33:27;;;;;;;253.30;95.50;;;;;;;13.93;68.18;93284.31;2071774;69;20160;-73
2022/07/11 04:35:52;;;;;;;170.68;65.43;;;;;;;13.81;68.85;93275.84;2068542;69;20144;-74
2022/07/11 04:38:21;;;;;;;325.58;141.73;;;;;;;13.93;67.63;93275.81;2068323;69;20498;-73
2022/07/11 04:40:48;;;;;;;228.10;99.40;;;;;;;13.87;68.30;93272.63;2068423;69;20144;-74
2022/07/11 04:43:16;;;;;;;330.45;142.75;;;;;;;13.91;68.22;93270.03;2068254;69;20155;-73
2022/07/11 04:45:46;;;;;;;408.38;190.10;;;;;;;13.96;67.72;93278.13;2071506;69;20136;-75
2022/07/11 04:48:12;;;;;;;93.68;40.25;;;;;;;13.99;67.43;93271.22;2071971;69;20594;-73
2022/07/11 04:50:38;;;;;;;388.65;180.23;;;;;;;14.01;66.89;93270.59;2071827;69;20151;-74
2022/07/11 04:53:03;;;;;;;10.40;6.63;;;;;;;13.85;68.37;93286.66;2071759;69;20159;-74
2022/07/11 04:55:29;;;;;;;9.00;5.28;;;;;;;13.90;67.96;93280.63;2070625;69;20151;-75
2022/07/11 04:57:55;;;;;;;6.63;4.60;;;;;;;13.87;68.88;93283.94;2071545;69;20678;-75
2022/07/11 05:00:21;;;;;;;6.57;4.40;;;;;;;13.81;68.63;93278.66;2071833;69;20180;-73
2022/07/11 05:02:46;;;;;;;7.13;4.93;;;;;;;13.90;68.38;93277.06;2071631;69;20506;-73
2022/07/11 05:05:12;;;;;;;8.98;5.35;;;;;;;13.84;69.09;93276.72;2071568;69;20149;-75
2022/07/11 05:07:40;;;;;;;8.70;5.72;;;;;;;13.86;67.85;93274.72;2071474;69;20183;-75
2022/07/11 05:10:06;;;;;;;7.65;5.05;;;;;;;13.89;67.98;93275.59;2071763;69;20260;-75
2022/07/11 05:12:31;;;;;;;10.93;4.70;;;;;;;13.77;69.53;93283.38;2071809;69;20151;-76
2022/07/11 05:15:00;;;;;;;6.78;4.63;;;;;;;13.93;67.99;93289.97;2071864;69;20140;-75
2022/07/11 05:17:26;;;;;;;9.80;5.43;;;;;;;13.86;68.21;93290.97;2071512;69;20626;-73
2022/07/11 05:19:52;;;;;;;11.07;6.18;;;;;;;13.86;68.69;93288.88;2072088;69;20262;-74
2022/07/11 05:22:21;;;;;;;5.95;4.20;;;;;;;13.77;69.36;93292.59;2068660;69;20546;-74
2022/07/11 05:24:46;;;;;;;9.63;4.57;;;;;;;13.84;69.25;93288.75;2071971;69;20172;-74
2022/07/11 05:27:12;;;;;;;8.63;4.53;;;;;;;13.86;69.05;93291.69;2072131;69;20152;-75
2022/07/11 05:29:38;;;;;;;6.00;4.57;;;;;;;13.91;68.95;93289.84;2071979;69;20148;-74
2022/07/11 05:32:04;;;;;;;21.20;12.75;;;;;;;13.99;67.85;93284.66;2065397;69;20187;-74
2022/07/11 05:34:31;;;;;;;593.95;372.65;;;;;;;13.95;68.82;93285.16;2070125;69;20152;-74
2022/07/11 05:36:57;;;;;;;19.02;10.75;;;;;;;13.94;69.09;93282.94;2068298;69;20217;-74
2022/07/11 05:39:23;;;;;;;10.55;6.28;;;;;;;14.00;68.85;93283.28;2068347;69;20148;-76
2022/07/11 05:41:51;;;;;;;8.23;4.85;;;;;;;13.97;69.18;93281.69;2071661;69;20217;-76
2022/07/11 05:44:18;;;;;;;8.75;5.43;;;;;;;13.98;69.37;93272.59;2071768;69;20221;-75
2022/07/11 05:46:46;;;;;;;10.63;5.45;;;;;;;14.02;68.89;93294.75;2068447;69;20152;-77
2022/07/11 05:49:15;;;;;;;9.57;6.43;;;;;;;14.07;68.06;93285.13;2068403;69;20179;-75
2022/07/11 05:51:41;;;;;;;10.50;6.13;;;;;;;14.03;67.94;93278.50;2071137;69;20167;-74
2022/07/11 05:54:07;;;;;;;9.02;5.82;;;;;;;14.08;68.58;93280.19;2071245;69;20206;-73
2022/07/11 05:56:33;;;;;;;10.82;6.07;;;;;;;14.05;69.01;93281.44;2070649;69;20175;-74
2022/07/11 05:58:59;;;;;;;13.45;6.65;;;;;;;14.03;69.40;93275.66;2071387;69;20147;-74
2022/07/11 06:01:26;;;;;;;8.85;6.05;;;;;;;14.03;69.55;93273.56;2071660;69;20140;-76
2022/07/11 06:03:52;;;;;;;12.07;6.35;;;;;;;14.07;68.62;93281.56;2071804;69;20137;-76
2022/07/11 06:06:18;;;;;;;14.13;6.28;;;;;;;14.14;69.18;93277.69;2068222;69;20160;-76
2022/07/11 06:08:44;;;;;;;12.13;6.20;;;;;;;14.15;69.07;93279.91;2071234;69;20205;-74
2022/07/11 06:11:14;;;;;;;7.97;5.40;;;;;;;14.20;69.15;93278.03;2071896;69;20580;-74
2022/07/11 06:13:41;;;;;;;6.80;5.13;;;;;;;14.27;67.65;93271.38;2071838;69;20140;-75
2022/07/11 06:16:08;;;;;;;9.25;5.10;;;;;;;14.32;67.24;93275.91;2071953;69;20156;-75
2022/07/11 06:18:34;;;;;;;6.72;5.30;;;;;;;14.27;68.81;93267.81;2071921;69;20237;-74
2022/07/11 06:21:00;;;;;;;7.90;5.22;;;;;;;14.31;69.00;93265.19;2071915;69;20136;-75
2022/07/11 06:23:26;;;;;;;7.70;4.90;;;;;;;14.45;68.19;93269.56;2071339;69;20171;-75
2022/07/11 06:25:51;;;;;;;10.40;4.95;;;;;;;14.42;68.98;93262.28;2071795;69;20145;-75
2022/07/11 06:28:17;;;;;;;5.20;4.50;;;;;;;14.54;68.83;93264.38;2068513;69;20189;-75
2022/07/11 06:30:43;;;;;;;6.82;4.70;;;;;;;14.73;67.84;93266.84;2068707;69;20519;-76
2022/07/11 06:33:10;;;;;;;5.47;4.50;;;;;;;14.73;68.32;93272.50;2071358;69;20224;-75
2022/07/11 06:35:36;;;;;;;6.93;4.55;;;;;;;14.80;69.39;93270.72;2071881;69;20206;-76
2022/07/11 06:38:01;;;;;;;6.10;4.50;;;;;;;14.98;67.11;93269.63;2071725;69;20598;-75
2022/07/11 06:40:27;;;;;;;5.88;4.68;;;;;;;15.05;67.83;93261.44;2071912;69;20284;-76
2022/07/11 06:42:54;;;;;;;6.45;4.60;;;;;;;15.17;65.94;93271.34;2068253;69;20163;-75
2022/07/11 06:45:19;;;;;;;5.60;4.47;;;;;;;15.22;65.72;93267.34;2071823;69;20155;-73
2022/07/11 06:47:45;;;;;;;8.80;4.70;;;;;;;15.39;65.55;93260.41;2071856;69;20129;-74
2022/07/11 06:50:11;;;;;;;7.72;4.88;;;;;;;15.39;66.18;93266.06;2071798;69;20155;-73
2022/07/11 06:52:37;;;;;;;7.80;4.88;;;;;;;15.54;64.37;93250.53;2071791;69;20185;-73
2022/07/11 06:55:03;;;;;;;9.07;4.63;;;;;;;15.49;66.95;93252.44;2071233;69;20647;-73
2022/07/11 06:57:30;;;;;;;9.80;5.07;;;;;;;15.54;68.60;93244.88;2071927;69;20140;-75
2022/07/11 06:59:55;;;;;;;9.75;4.78;;;;;;;15.72;65.22;93253.59;2071800;69;20217;-75
2022/07/11 07:02:23;;;;;;;8.27;4.85;;;;;;;15.82;65.16;93254.09;2071722;69;20152;-76
2022/07/11 07:04:48;;;;;;;7.05;4.90;;;;;;;15.90;65.57;93251.69;2071715;69;20152;-76
2022/07/11 07:07:14;;;;;;;7.35;5.30;;;;;;;15.95;65.34;93258.28;2071623;69;20136;-75
2022/07/11 07:09:41;;;;;;;8.50;5.05;;;;;;;16.05;63.73;93255.94;2071271;69;20214;-76
2022/07/11 07:12:07;;;;;;;10.88;5.50;;;;;;;15.87;63.93;93252.94;2071661;69;20261;-76
2022/07/11 07:14:32;;;;;;;6.00;4.60;;;;;;;16.09;63.61;93258.25;2071727;69;20577;-76
2022/07/11 07:16:58;;;;;;;9.48;4.68;;;;;;;16.19;63.16;93250.97;2068378;69;20179;-75
2022/07/11 07:19:24;;;;;;;6.22;3.88;;;;;;;16.24;64.54;93258.31;2071884;69;20144;-76
2022/07/11 07:21:51;;;;;;;7.80;4.00;;;;;;;16.35;65.27;93248.16;2071601;69;20152;-74
2022/07/11 07:24:17;;;;;;;7.72;3.63;;;;;;;16.47;63.88;93253.72;2062533;69;20571;-79
2022/07/11 07:26:42;;;;;;;5.72;3.65;;;;;;;16.55;64.42;93253.38;2071735;69;20147;-76
2022/07/11 07:29:08;;;;;;;6.60;4.10;;;;;;;16.51;62.78;93257.47;2068497;69;20151;-76
2022/07/11 07:31:34;;;;;;;5.45;3.63;;;;;;;16.31;60.39;93252.91;2071446;69;20235;-75
2022/07/11 07:33:59;;;;;;;6.82;3.50;;;;;;;16.49;60.85;93250.94;2071496;69;20131;-75
2022/07/11 07:36:25;;;;;;;10.85;3.58;;;;;;;16.62;59.36;93240.91;2071699;69;20143;-75
2022/07/11 07:38:50;;;;;;;6.40;3.40;;;;;;;16.79;60.69;93239.59;2071638;69;20191;-75
2022/07/11 07:41:16;;;;;;;5.10;3.10;;;;;;;16.71;59.18;93242.75;2071685;69;20563;-76
2022/07/11 07:43:42;;;;;;;5.50;3.85;;;;;;;16.79;59.46;93239.59;2065337;69;20209;-75
2022/07/11 07:46:09;;;;;;;6.40;3.65;;;;;;;16.73;59.20;93240.78;2071816;69;20149;-75
2022/07/11 07:48:36;;;;;;;4.75;3.85;;;;;;;16.91;58.19;93240.88;2071727;69;20179;-74
2022/07/11 07:51:04;;;;;;;5.53;3.13;;;;;;;17.00;59.19;93245.56;2071826;69;20148;-75
2022/07/11 07:53:30;;;;;;;5.70;3.95;;;;;;;16.90;58.66;93230.88;2071604;69;20194;-76
2022/07/11 07:55:55;;;;;;;4.72;3.25;;;;;;;17.08;58.08;93235.91;2071877;69;20729;-75
2022/07/11 07:58:21;;;;;;;4.53;3.30;;;;;;;17.27;59.42;93232.50;2071368;69;20493;-76
2022/07/11 08:03:32;;;;;;;4.65;3.13;;;;;;;17.65;57.15;93232.75;2071663;69;20190;-76
2022/07/11 08:05:58;;;;;;;4.47;3.50;;;;;;;17.79;60.31;93230.53;2071752;69;20144;-77
2022/07/11 08:08:23;;;;;;;6.03;2.80;;;;;;;17.87;57.49;93222.34;2071498;69;20152;-78
2022/07/11 08:10:50;;;;;;;6.60;3.80;;;;;;;18.13;57.96;93219.84;2071838;69;20151;-79
2022/07/11 08:13:16;;;;;;;8.95;2.92;;;;;;;18.45;58.15;93209.00;2071439;69;20554;-76
2022/07/11 08:15:41;;;;;;;6.88;3.33;;;;;;;18.71;57.65;93220.03;2071700;69;20574;-75
2022/07/11 08:18:07;;;;;;;5.25;3.60;;;;;;;18.94;56.44;93208.09;2071854;69;20136;-74
2022/07/11 08:20:33;;;;;;;5.63;2.95;;;;;;;19.60;54.03;93207.59;2068332;69;20144;-76
2022/07/11 08:23:00;;;;;;;4.25;2.92;;;;;;;19.78;52.90;93209.00;2071531;69;20144;-75
2022/07/11 08:25:26;;;;;;;5.00;2.80;;;;;;;20.46;52.24;93200.53;2071704;69;20166;-76
2022/07/11 08:27:52;;;;;;;6.10;3.50;;;;;;;20.22;50.19;93199.75;2067891;69;20141;-76
2022/07/11 08:30:17;;;;;;;6.97;3.20;;;;;;;20.63;50.65;93195.34;2071722;69;20140;-76
2022/07/11 08:32:43;;;;;;;9.02;3.03;;;;;;;20.52;49.52;93192.16;2071648;69;20606;-75
2022/07/11 08:35:11;;;;;;;4.40;2.63;;;;;;;20.65;49.20;93193.28;2071609;69;20852;-76
2022/07/11 08:37:37;;;;;;;6.68;3.05;;;;;;;21.33;49.12;93189.59;2068338;69;20180;-76
2022/07/11 08:40:03;;;;;;;3.38;2.47;;;;;;;21.47;46.64;93187.84;2071633;69;20179;-76
2022/07/11 08:42:30;;;;;;;4.03;2.92;;;;;;;21.82;47.13;93180.94;2071232;69;20285;-75
2022/07/11 08:44:57;;;;;;;3.88;2.70;;;;;;;22.08;45.14;93183.78;2071666;69;20641;-76
2022/07/11 08:47:24;;;;;;;5.05;2.80;;;;;;;21.79;46.23;93188.00;2072162;69;20243;-77
2022/07/11 08:49:51;;;;;;;5.05;2.67;;;;;;;22.80;46.02;93176.88;2071816;69;20187;-76
2022/07/11 08:52:19;;;;;;;5.75;2.65;;;;;;;21.82;46.63;93180.22;2072025;69;20239;-76
2022/07/11 08:54:45;;;;;;;4.15;2.92;;;;;;;22.49;45.40;93184.78;2072078;69;20132;-76
2022/07/11 08:57:12;;;;;;;5.07;2.70;;;;;;;22.67;44.91;93175.16;2071861;69;20144;-76
2022/07/11 08:59:41;;;;;;;5.28;2.70;;;;;;;23.38;46.03;93176.03;2072204;69;20530;-76
2022/07/11 09:02:09;;;;;;;6.07;2.60;;;;;;;23.18;42.12;93168.41;2071825;69;20610;-76
2022/07/11 09:04:35;;;;;;;6.88;2.92;;;;;;;22.49;43.53;93167.56;2066002;69;20238;-76
2022/07/11 09:07:01;;;;;;;7.03;2.78;;;;;;;23.69;44.72;93166.63;2071987;69;20590;-76
2022/07/11 09:09:28;;;;;;;4.97;3.00;;;;;;;23.24;42.47;93162.81;2071827;69;20239;-76
2022/07/11 09:11:57;;;;;;;4.25;2.40;;;;;;;22.39;44.43;93163.75;2071172;69;20580;-76
2022/07/11 09:14:27;;;;;;;7.20;2.60;;;;;;;23.73;45.37;93160.19;2071084;69;20146;-77
2022/07/11 09:17:02;;;;;;;7.53;2.40;;;;;;;24.29;41.71;93154.03;2071457;69;20160;-77
2022/07/11 09:19:39;;;;;;;4.40;2.03;;;;;;;24.73;42.77;93156.19;2071979;69;20140;-77
2022/07/11 09:27:55;;;;;;;5.32;2.35;;;;;;;25.06;40.75;93145.84;2071076;69;20168;-76
2022/07/11 09:30:30;;;;;;;3.58;2.28;;;;;;;24.46;40.59;93149.28;2071845;69;20153;-75
2022/07/11 09:33:06;;;;;;;3.90;2.22;;;;;;;24.42;41.51;93140.59;2071991;69;20160;-76
2022/07/11 09:35:42;;;;;;;4.55;2.45;;;;;;;25.22;40.88;93140.34;2068640;69;20164;-76
2022/07/11 09:38:10;;;;;;;3.42;2.33;;;;;;;24.97;39.43;93139.28;2068279;69;20176;-76
2022/07/11 09:40:37;;;;;;;4.40;2.65;;;;;;;25.57;39.79;93135.03;2071300;69;20262;-75
2022/07/11 09:43:07;;;;;;;2.95;2.30;;;;;;;26.25;40.52;93134.31;2071227;69;20147;-77
2022/07/11 09:45:35;;;;;;;3.80;2.20;;;;;;;25.43;39.00;93126.19;2071859;69;20148;-75
2022/07/11 09:48:09;;;;;;;4.05;2.08;;;;;;;25.35;38.61;93124.66;2071911;69;20156;-76
2022/07/11 09:50:35;;;;;;;2.40;2.20;;;;;;;25.07;38.31;93121.41;2068891;69;20653;-76
2022/07/11 09:53:16;;;;;;;3.58;2.40;;;;;;;26.01;38.27;93117.47;2068567;69;20155;-75
2022/07/11 09:55:46;;;;;;;3.22;2.13;;;;;;;26.91;37.70;93129.06;2071924;69;20172;-78
2022/07/11 09:58:14;;;;;;;2.97;2.10;;;;;;;26.73;36.64;93123.88;2071398;69;20149;-76
2022/07/11 10:00:41;;;;;;;4.15;2.03;;;;;;;27.20;37.07;93124.19;2071704;69;20148;-77
2022/07/11 10:03:09;;;;;;;5.32;2.20;;;;;;;27.04;36.20;93111.06;2071886;69;20172;-76
2022/07/11 10:05:35;;;;;;;4.00;2.13;;;;;;;27.02;36.18;93107.44;2068303;69;20136;-77
2022/07/11 10:08:03;;;;;;;6.35;2.58;;;;;;;26.83;35.90;93103.72;2071466;69;20143;-77
2022/07/11 10:10:30;;;;;;;2.72;1.90;;;;;;;27.26;35.67;93098.94;2071785;69;20238;-74
2022/07/11 10:12:56;;;;;;;5.00;2.00;;;;;;;27.97;37.53;93103.53;2071656;69;20156;-77
2022/07/11 10:15:34;;;;;;;5.68;1.83;;;;;;;28.12;33.67;93102.09;2071757;69;20148;-77
2022/07/11 10:18:06;;;;;;;3.28;1.90;;;;;;;27.98;34.37;93097.00;2071868;69;20156;-75
2022/07/11 10:20:50;;;;;;;3.50;1.85;;;;;;;28.32;34.84;93089.81;2069898;69;20147;-76
2022/07/11 10:23:31;;;;;;;4.00;2.00;;;;;;;28.46;34.61;93089.84;2068329;69;20591;-76
2022/07/11 10:26:20;;;;;;;2.78;1.70;;;;;;;27.96;34.60;93081.81;2065044;69;20160;-76
2022/07/11 10:28:53;;;;;;;4.38;1.80;;;;;;;28.54;34.77;93084.03;2061536;69;20156;-75
2022/07/11 10:31:21;;;;;;;2.50;2.00;;;;;;;29.28;34.88;93081.75;2065023;69;20152;-75
2022/07/11 10:34:15;;;;;;;6.43;2.00;;;;;;;29.44;33.46;93078.06;2067754;69;20171;-77
2022/07/11 10:36:42;;;;;;;2.53;1.75;;;;;;;29.99;32.35;93074.91;2066987;69;20157;-78
2022/07/11 10:39:18;;;;;;;2.90;1.90;;;;;;;29.48;31.99;93086.03;2068284;69;20132;-78
2022/07/11 10:41:46;;;;;;;2.53;1.80;;;;;;;30.48;32.12;93080.41;2068183;69;20152;-79
2022/07/11 10:44:12;;;;;;;4.45;2.10;;;;;;;28.80;32.03;93085.47;2068220;69;20140;-80
2022/07/11 10:46:38;;;;;;;4.75;1.90;;;;;;;30.15;32.26;93070.47;2068336;69;20156;-79
2022/07/11 10:49:13;;;;;;;5.25;2.08;;;;;;;30.91;30.41;93074.22;2068880;69;20161;-79
2022/07/11 10:51:55;;;;;;;2.58;1.52;;;;;;;30.75;30.75;93060.56;2071766;69;20141;-79
2022/07/11 10:54:52;;;;;;;4.57;1.83;;;;;;;32.63;29.66;93067.66;2071383;69;20517;-78
2022/07/11 10:57:26;;;;;;;2.63;1.58;;;;;;;32.37;28.22;93076.81;2071661;69;20521;-76
2022/07/11 11:00:04;;;;;;;3.20;1.50;;;;;;;32.46;28.07;93065.75;2071863;69;20594;-75
2022/07/11 11:02:31;;;;;;;3.55;1.40;;;;;;;33.89;27.99;93070.41;2071373;69;20262;-79
2022/07/11 11:05:00;;;;;;;6.43;1.58;;;;;;;35.29;26.07;93067.88;2071723;69;20307;-79
2022/07/11 11:07:40;;;;;;;5.75;1.90;;;;;;;36.42;24.70;93071.22;2071725;69;20146;-81
2022/07/11 11:10:18;;;;;;;6.90;1.50;;;;;;;38.96;22.60;93072.44;2071984;69;20147;-80
2022/07/11 11:13:09;;;;;;;4.85;1.30;;;;;;;39.70;21.34;93078.91;2071914;69;20164;-80
2022/07/11 11:15:52;;;;;;;2.20;1.33;;;;;;;39.30;21.14;93068.06;2068370;69;20148;-81
2022/07/11 11:18:23;;;;;;;3.63;1.38;;;;;;;42.58;19.20;93074.28;2071986;69;20160;-81
2022/07/11 11:21:07;;;;;;;2.53;1.30;;;;;;;42.02;18.94;93066.97;2071971;69;20151;-81
2022/07/11 11:23:34;;;;;;;2.85;1.20;;;;;;;42.58;18.57;93068.34;2072028;69;20578;-81
2022/07/11 11:26:21;;;;;;;2.90;1.40;;;;;;;40.12;19.19;93056.34;2072104;69;20132;-80
2022/07/11 11:29:06;;;;;;;2.25;1.30;;;;;;;40.52;19.85;93056.00;2071930;69;20641;-80
2022/07/11 11:31:32;;;;;;;5.63;1.23;;;;;;;42.97;18.15;93063.22;2071628;69;20164;-80
2022/07/11 11:34:00;;;;;;;6.35;1.30;;;;;;;41.53;18.62;93054.72;2071999;69;20144;-79
2022/07/11 11:36:27;;;;;;;4.88;1.55;;;;;;;41.77;19.01;93052.75;2071793;69;20155;-81
2022/07/11 11:38:54;;;;;;;4.93;1.38;;;;;;;44.01;16.75;93054.16;2071951;69;20594;-80
2022/07/11 11:41:30;;;;;;;1.42;1.20;;;;;;;45.95;16.46;93059.38;2071824;69;20175;-83
2022/07/11 11:43:58;;;;;;;1.95;1.02;;;;;;;43.81;16.37;93056.09;2072195;69;20235;-81